Time;durP1;ratioP1;P1;durP2;ratioP2;P2;SDS_P1;SDS_P2;PMS_P1;PMS_P2;Temp;Humidity;BMP_temperature;BMP_pressure;BME280_temperature;BME280_humidity;BME280_pressure;Samples;Min_cycle;Max_cycle;Signal;HPM_P1;HPM_P2
2022/11/15 07:50:44;;;;;;;30.37;19.63;;;8.10;99.90;;;;;;6188636;22;1266288;-54
2022/11/15 07:53:10;;;;;;;34.23;20.37;;;8.20;99.90;;;;;;6241453;23;20180;-54
2022/11/15 07:55:36;;;;;;;42.37;20.80;;;8.20;99.90;;;;;;6238406;23;20368;-54
2022/11/15 07:58:04;;;;;;;38.37;21.63;;;8.20;99.90;;;;;;6242101;23;20460;-55
2022/11/15 08:00:30;;;;;;;36.05;22.60;;;8.20;99.90;;;;;;6242564;23;20360;-54
2022/11/15 08:03:07;;;;;;;34.13;21.43;;;8.20;99.90;;;;;;6241439;23;20177;-53
2022/11/15 08:05:35;;;;;;;35.23;20.93;;;8.20;99.90;;;;;;6215862;23;20470;-54
2022/11/15 08:08:00;;;;;;;34.57;19.33;;;8.30;99.90;;;;;;6240814;23;20369;-55
2022/11/15 08:10:27;;;;;;;31.33;18.80;;;8.30;99.90;;;;;;6243067;23;20448;-54
2022/11/15 08:13:06;;;;;;;35.33;19.90;;;8.40;99.90;;;;;;6242864;23;20158;-53
2022/11/15 08:15:33;;;;;;;32.97;19.90;;;8.40;99.90;;;;;;6240592;23;20360;-54
2022/11/15 08:18:01;;;;;;;34.83;18.70;;;8.30;59.80;;;;;;6242303;23;20369;-54
2022/11/15 08:20:32;;;;;;;36.33;18.93;;;8.30;20.40;;;;;;6242616;23;20845;-54
2022/11/15 08:22:59;;;;;;;31.60;18.70;;;8.30;1.00;;;;;;6244899;23;20401;-61
2022/11/15 08:25:26;;;;;;;31.87;19.80;;;8.20;1.00;;;;;;6218279;23;20420;-54
2022/11/15 08:27:56;;;;;;;139.93;72.90;;;8.20;1.00;;;;;;6244620;23;20388;-54
2022/11/15 08:30:23;;;;;;;32.90;20.17;;;8.20;1.00;;;;;;6245006;23;20367;-53
2022/11/15 08:32:50;;;;;;;30.83;19.30;;;8.30;9.30;;;;;;6244508;23;20368;-53
2022/11/15 08:35:16;;;;;;;32.77;18.93;;;8.30;20.90;;;;;;6243481;23;20387;-54
2022/11/15 08:37:42;;;;;;;31.33;18.50;;;8.40;38.40;;;;;;6244543;23;20365;-53
2022/11/15 08:40:08;;;;;;;33.60;19.67;;;8.40;41.20;;;;;;6245004;23;20400;-54
2022/11/15 08:42:33;;;;;;;36.50;18.77;;;8.40;33.00;;;;;;6244036;23;20464;-55
2022/11/15 08:44:59;;;;;;;35.57;20.60;;;8.40;24.50;;;;;;6243676;23;20392;-54
2022/11/15 08:47:25;;;;;;;33.00;18.93;;;8.50;13.70;;;;;;6244481;23;20149;-53
2022/11/15 08:49:50;;;;;;;33.07;19.10;;;8.50;4.60;;;;;;6244700;23;20272;-50
2022/11/15 08:52:16;;;;;;;30.77;18.50;;;8.60;1.00;;;;;;6244455;23;20150;-56
2022/11/15 08:54:42;;;;;;;29.67;18.27;;;8.60;1.00;;;;;;6244802;23;20181;-53
2022/11/15 08:57:09;;;;;;;31.80;18.60;;;8.70;1.00;;;;;;6244492;23;20208;-52
2022/11/15 08:59:35;;;;;;;36.20;18.17;;;8.70;1.00;;;;;;6244772;23;20139;-53
2022/11/15 09:02:01;;;;;;;28.80;17.57;;;8.70;1.00;;;;;;6244137;23;20357;-52
2022/11/15 09:04:27;;;;;;;28.53;17.17;;;8.70;1.00;;;;;;6244391;23;20448;-53
2022/11/15 09:06:53;;;;;;;33.10;18.10;;;8.70;1.00;;;;;;6244065;23;20141;-53
2022/11/15 09:09:18;;;;;;;35.37;18.90;;;8.70;1.00;;;;;;6245060;23;20595;-53
2022/11/15 09:11:44;;;;;;;31.47;18.53;;;8.80;1.00;;;;;;6243894;23;20165;-53
2022/11/15 09:14:14;;;;;;;29.17;16.57;;;8.90;1.00;;;;;;6244234;23;20184;-53
2022/11/15 09:16:39;;;;;;;33.57;17.73;;;8.90;1.00;;;;;;6244041;23;20273;-53
2022/11/15 09:19:05;;;;;;;33.77;16.93;;;8.90;1.00;;;;;;6244440;23;20921;-53
2022/11/15 09:21:31;;;;;;;31.70;16.97;;;8.90;1.00;;;;;;6243978;23;20150;-53
2022/11/15 09:23:56;;;;;;;28.27;17.20;;;9.00;1.00;;;;;;6243917;23;20513;-54
2022/11/15 09:26:22;;;;;;;25.23;18.13;;;9.20;1.00;;;;;;6243249;23;20160;-54
2022/11/15 09:28:48;;;;;;;36.93;17.60;;;9.30;1.00;;;;;;6243892;23;20149;-53
2022/11/15 09:31:14;;;;;;;28.77;16.80;;;9.30;1.00;;;;;;6243077;23;20227;-54
2022/11/15 09:33:42;;;;;;;30.33;17.70;;;9.40;99.90;;;;;;6243520;23;20181;-53
2022/11/15 09:36:09;;;;;;;31.00;17.80;;;9.50;99.90;;;;;;6243527;23;20852;-52
2022/11/15 09:38:35;;;;;;;33.40;18.60;;;9.60;99.90;;;;;;6243174;23;20368;-52
2022/11/15 09:41:12;;;;;;;30.53;18.30;;;9.70;99.90;;;;;;6217244;23;20483;-53
2022/11/15 09:43:56;;;;;;;28.93;16.13;;;9.80;26.30;;;;;;6243963;23;20152;-53
2022/11/15 09:46:59;;;;;;;29.57;19.00;;;9.90;36.60;;;;;;6244106;23;20422;-53
2022/11/15 09:49:25;;;;;;;27.63;17.37;;;9.90;1.00;;;;;;6243352;23;21050;-54
2022/11/15 09:51:53;;;;;;;27.60;16.57;;;10.00;1.00;;;;;;6244302;23;20384;-54
2022/11/15 09:54:43;;;;;;;25.63;15.90;;;10.00;1.00;;;;;;6242817;23;20912;-53
2022/11/15 09:57:28;;;;;;;29.40;17.00;;;10.10;1.00;;;;;;6243820;23;20829;-50
2022/11/15 09:59:54;;;;;;;25.30;15.60;;;10.10;1.00;;;;;;6243421;23;20884;-52
2022/11/15 10:02:31;;;;;;;24.90;17.07;;;10.10;1.00;;;;;;6244200;23;20424;-53
2022/11/15 10:04:58;;;;;;;37.00;17.67;;;10.20;1.00;;;;;;6243970;23;20926;-53
2022/11/15 10:07:42;;;;;;;26.67;16.87;;;10.10;99.90;;;;;;6244092;23;20383;-53
2022/11/15 10:10:18;;;;;;;32.90;16.37;;;10.20;99.90;;;;;;6243337;23;20643;-52
2022/11/15 10:12:48;;;;;;;27.20;16.90;;;10.20;99.90;;;;;;6243354;23;20414;-54
2022/11/15 10:15:22;;;;;;;25.33;16.40;;;10.20;99.90;;;;;;6216415;23;20728;-53
2022/11/15 10:17:50;;;;;;;25.60;16.70;;;10.20;1.00;;;;;;6243806;23;20368;-53
2022/11/15 10:20:28;;;;;;;26.10;16.70;;;10.30;1.00;;;;;;6243276;23;20448;-53
2022/11/15 10:22:58;;;;;;;27.77;15.70;;;10.30;1.00;;;;;;6243807;23;20373;-53
2022/11/15 10:25:33;;;;;;;25.90;16.10;;;10.30;1.00;;;;;;6243286;23;20423;-53
2022/11/15 10:28:10;;;;;;;22.43;14.60;;;10.30;1.00;;;;;;6243259;23;20388;-53
2022/11/15 10:30:48;;;;;;;23.67;15.67;;;10.30;1.00;;;;;;6242667;23;20365;-57
2022/11/15 10:33:34;;;;;;;26.97;18.17;;;10.30;18.00;;;;;;6243138;23;20430;-53
2022/11/15 10:36:09;;;;;;;24.13;15.70;;;10.30;1.00;;;;;;6216849;23;20389;-52
2022/11/15 10:39:02;;;;;;;25.40;15.77;;;10.30;1.00;;;;;;6242943;23;20356;-52
2022/11/15 10:41:31;;;;;;;22.53;14.90;;;10.30;1.00;;;;;;6211991;23;20397;-53
2022/11/15 10:44:20;;;;;;;21.67;15.23;;;10.30;62.10;;;;;;6243132;23;20380;-53
2022/11/15 10:47:21;;;;;;;23.33;14.83;;;10.20;99.90;;;;;;6243395;23;20381;-53
2022/11/15 10:49:58;;;;;;;25.47;14.73;;;10.30;99.90;;;;;;6243295;23;20444;-53
2022/11/15 10:52:25;;;;;;;20.87;14.47;;;10.30;99.90;;;;;;6243379;23;20411;-53
2022/11/15 10:55:01;;;;;;;26.43;15.23;;;10.30;1.00;;;;;;6243557;23;20463;-53
2022/11/15 10:57:30;;;;;;;23.47;14.80;;;10.40;99.90;;;;;;6243013;23;20361;-52
2022/11/15 11:00:02;;;;;;;22.97;13.97;;;10.40;1.00;;;;;;6243384;23;20387;-53
2022/11/15 11:02:41;;;;;;;26.23;16.37;;;10.50;99.90;;;;;;6243143;23;20361;-53
2022/11/15 11:05:29;;;;;;;24.40;15.00;;;10.60;99.90;;;;;;6243278;23;20415;-52
2022/11/15 11:08:01;;;;;;;21.37;14.30;;;10.70;49.90;;;;;;6244051;23;20911;-53
2022/11/15 11:10:27;;;;;;;26.00;15.80;;;10.80;1.00;;;;;;6244477;23;20372;-53
2022/11/15 11:12:53;;;;;;;21.93;15.00;;;10.80;1.00;;;;;;6243972;23;20391;-53
2022/11/15 11:15:19;;;;;;;26.27;15.57;;;10.90;1.00;;;;;;6243781;23;20448;-52
2022/11/15 11:17:50;;;;;;;24.57;15.90;;;10.90;1.00;;;;;;6243074;23;20152;-52
2022/11/15 11:20:29;;;;;;;27.63;15.03;;;11.00;1.00;;;;;;6243166;23;20158;-53
2022/11/15 11:23:03;;;;;;;24.43;14.97;;;11.00;1.00;;;;;;6242926;23;20455;-53
2022/11/15 11:25:47;;;;;;;24.20;15.63;;;11.00;99.90;;;;;;6243514;23;20703;-52
2022/11/15 11:28:36;;;;;;;32.40;15.23;;;11.00;1.00;;;;;;6243025;23;20376;-53
2022/11/15 11:31:43;;;;;;;22.23;14.50;;;11.00;1.00;;;;;;6243614;23;20963;-53
2022/11/15 11:34:27;;;;;;;21.07;14.30;;;11.20;1.00;;;;;;6222339;23;20439;-53
2022/11/15 11:36:59;;;;;;;24.67;14.90;;;11.20;99.90;;;;;;6242276;23;20786;-53
2022/11/15 11:39:32;;;;;;;26.00;14.50;;;11.20;99.90;;;;;;6242695;23;20420;-53
2022/11/15 11:42:19;;;;;;;19.60;13.33;;;11.30;1.00;;;;;;6242889;23;20388;-53
2022/11/15 11:44:47;;;;;;;22.27;14.17;;;11.40;99.90;;;;;;6243302;23;20829;-52
2022/11/15 11:47:24;;;;;;;26.23;14.53;;;11.40;99.90;;;;;;6242768;23;20807;-50
2022/11/15 11:49:53;;;;;;;23.20;14.73;;;11.40;99.90;;;;;;6242338;23;20481;-52
2022/11/15 11:52:41;;;;;;;19.97;13.60;;;11.40;99.90;;;;;;6242978;23;20408;-51
2022/11/15 11:55:18;;;;;;;24.70;13.90;;;11.40;1.00;;;;;;6243075;23;20438;-50
2022/11/15 11:57:50;;;;;;;31.43;19.27;;;11.40;1.00;;;;;;6244294;23;21067;-52
2022/11/15 12:00:16;;;;;;;102.30;56.13;;;11.40;1.00;;;;;;6245048;23;20360;-51
2022/11/15 12:02:47;;;;;;;28.23;15.80;;;11.40;1.00;;;;;;6245355;23;20704;-51
2022/11/15 12:05:27;;;;;;;20.27;13.90;;;11.50;1.00;;;;;;6245277;23;20888;-51
2022/11/15 12:07:59;;;;;;;21.10;14.47;;;11.50;99.90;;;;;;6245231;23;20407;-51
2022/11/15 12:10:30;;;;;;;21.67;13.43;;;11.60;99.90;;;;;;6244279;23;20759;-50
2022/11/15 12:13:07;;;;;;;22.27;13.33;;;11.80;99.90;;;;;;6245120;23;20401;-51
2022/11/15 12:15:40;;;;;;;20.10;13.17;;;12.10;99.90;;;;;;6245225;23;20480;-51
2022/11/15 12:18:13;;;;;;;20.33;13.47;;;12.70;1.00;;;;;;6245023;23;20480;-51
2022/11/15 12:20:50;;;;;;;19.57;12.20;;;13.10;99.90;;;;;;6243756;23;20364;-51
2022/11/15 12:23:37;;;;;;;18.77;12.97;;;13.30;1.00;;;;;;6244758;23;20460;-51
2022/11/15 12:26:16;;;;;;;21.20;12.70;;;13.20;1.00;;;;;;6244709;23;20368;-51
2022/11/15 12:28:54;;;;;;;17.50;12.33;;;13.30;1.00;;;;;;6242470;23;20399;-51
2022/11/15 12:31:19;;;;;;;20.97;11.73;;;13.40;99.90;;;;;;6242458;23;20360;-50
2022/11/15 12:33:49;;;;;;;17.57;11.77;;;13.50;99.90;;;;;;6243294;23;20896;-50
2022/11/15 12:36:21;;;;;;;17.93;11.10;;;13.70;99.90;;;;;;6244162;23;20146;-50
2022/11/15 12:38:54;;;;;;;24.47;12.37;;;13.90;1.00;;;;;;6243477;23;20376;-50
2022/11/15 12:41:31;;;;;;;15.53;11.30;;;14.00;99.90;;;;;;6243402;23;20361;-51
2022/11/15 12:43:58;;;;;;;16.23;11.40;;;14.40;1.00;;;;;;6242117;23;20483;-50
2022/11/15 12:46:30;;;;;;;15.10;11.60;;;14.80;1.00;;;;;;6243177;23;20373;-50
2022/11/15 12:48:57;;;;;;;14.97;10.70;;;15.30;1.00;;;;;;6242873;23;20436;-51
2022/11/15 12:51:43;;;;;;;16.53;11.30;;;15.80;1.00;;;;;;6244646;23;20397;-49
2022/11/15 12:54:24;;;;;;;16.33;10.90;;;16.10;1.00;;;;;;6244180;23;20443;-51
2022/11/15 12:57:07;;;;;;;19.73;11.07;;;16.30;1.00;;;;;;6239336;23;20379;-51
2022/11/15 12:59:52;;;;;;;26.20;11.30;;;16.30;1.00;;;;;;6243753;23;20353;-53
2022/11/15 13:02:27;;;;;;;26.63;10.63;;;16.20;1.00;;;;;;6244195;23;20358;-51
2022/11/15 13:05:15;;;;;;;14.93;10.80;;;16.00;1.00;;;;;;6242481;23;20677;-50
2022/11/15 13:07:40;;;;;;;19.00;10.60;;;15.70;1.00;;;;;;6242007;23;20385;-51
2022/11/15 13:10:12;;;;;;;18.50;10.60;;;15.50;1.00;;;;;;6241602;23;20376;-51
2022/11/15 13:12:44;;;;;;;16.37;11.70;;;15.30;1.00;;;;;;6216736;23;20196;-51
2022/11/15 13:15:12;;;;;;;20.80;10.30;;;15.20;1.00;;;;;;6242805;23;20448;-51
2022/11/15 13:17:42;;;;;;;18.43;10.57;;;15.10;1.00;;;;;;6242217;23;20380;-51
2022/11/15 13:20:07;;;;;;;16.87;11.63;;;14.90;1.00;;;;;;6241444;23;20388;-50
2022/11/15 13:23:11;;;;;;;17.63;10.97;;;14.70;1.00;;;;;;6242589;23;20357;-51
2022/11/15 13:26:16;;;;;;;20.47;10.90;;;14.40;1.00;;;;;;6219608;23;20220;-51
2022/11/15 13:28:45;;;;;;;16.23;11.10;;;14.30;1.00;;;;;;6242382;23;20361;-51
2022/11/15 13:31:19;;;;;;;15.70;10.80;;;14.20;1.00;;;;;;6242978;23;20669;-51
2022/11/15 13:33:45;;;;;;;17.53;11.03;;;14.10;1.00;;;;;;6241725;23;20765;-51
2022/11/15 13:36:17;;;;;;;15.23;11.17;;;14.00;1.00;;;;;;6242383;23;20361;-50
2022/11/15 13:38:43;;;;;;;14.23;10.43;;;13.90;1.00;;;;;;6242706;23;20819;-51
2022/11/15 13:41:20;;;;;;;18.23;12.97;;;13.70;1.00;;;;;;6243056;23;20426;-51
2022/11/15 13:43:47;;;;;;;19.90;11.50;;;13.70;1.00;;;;;;6241703;23;20157;-50
2022/11/15 13:46:17;;;;;;;16.83;11.23;;;13.70;1.00;;;;;;6241575;23;20402;-51
2022/11/15 13:48:44;;;;;;;17.20;11.60;;;13.60;1.00;;;;;;6241609;23;20392;-50
2022/11/15 13:51:26;;;;;;;17.77;11.30;;;13.50;1.00;;;;;;6242765;23;20453;-48
2022/11/15 13:53:57;;;;;;;17.17;11.80;;;13.40;1.00;;;;;;6242437;23;20420;-50
2022/11/15 13:56:25;;;;;;;17.57;12.30;;;13.40;1.00;;;;;;6216952;23;20393;-49
2022/11/15 13:58:52;;;;;;;16.67;12.10;;;13.40;1.00;;;;;;6217419;23;20847;-50
2022/11/15 14:01:20;;;;;;;17.70;11.60;;;13.30;1.00;;;;;;6243938;23;20391;-51
2022/11/15 14:03:57;;;;;;;16.27;11.20;;;13.30;1.00;;;;;;6244235;23;20365;-51
2022/11/15 14:06:27;;;;;;;15.73;11.00;;;13.20;1.00;;;;;;6243864;23;20368;-51
2022/11/15 14:09:46;;;;;;;19.60;10.30;;;13.10;1.00;;;;;;6243939;23;20415;-50
2022/11/15 14:12:33;;;;;;;22.07;10.87;;;13.00;1.00;;;;;;6210674;23;20396;-51
2022/11/15 14:15:25;;;;;;;23.73;12.17;;;13.00;1.00;;;;;;6243204;23;20428;-51
2022/11/15 14:17:50;;;;;;;15.50;10.20;;;13.00;1.00;;;;;;6243668;23;20361;-51
2022/11/15 14:20:30;;;;;;;17.47;10.50;;;13.00;1.00;;;;;;6243557;23;20726;-50
2022/11/15 14:23:02;;;;;;;15.20;10.40;;;13.00;1.00;;;;;;6239832;23;20526;-51
2022/11/15 14:25:30;;;;;;;18.10;9.90;;;12.90;1.00;;;;;;6243908;23;20366;-51
2022/11/15 14:28:22;;;;;;;18.27;10.80;;;12.90;1.00;;;;;;6243953;23;20376;-51
2022/11/15 14:30:50;;;;;;;16.50;10.33;;;12.90;1.00;;;;;;6243606;23;20383;-52
2022/11/15 14:33:29;;;;;;;19.43;11.33;;;12.80;1.00;;;;;;6243411;23;20893;-50
2022/11/15 14:35:56;;;;;;;15.63;11.73;;;12.70;1.00;;;;;;6243468;23;20447;-51
2022/11/15 14:38:23;;;;;;;15.27;11.23;;;12.60;1.00;;;;;;6239632;23;20395;-50
2022/11/15 14:40:49;;;;;;;16.80;10.87;;;12.60;1.00;;;;;;6242920;23;20463;-51
2022/11/15 14:43:14;;;;;;;17.17;11.70;;;12.50;1.00;;;;;;6242969;23;20728;-51
2022/11/15 14:45:41;;;;;;;21.23;11.23;;;12.50;1.00;;;;;;6242243;23;20414;-51
2022/11/15 14:48:06;;;;;;;22.73;11.33;;;12.40;1.00;;;;;;6242105;23;20905;-50
2022/11/15 14:50:33;;;;;;;16.27;11.33;;;12.30;5.60;;;;;;6243286;23;20440;-49
2022/11/15 14:52:59;;;;;;;17.70;11.93;;;12.20;27.70;;;;;;6243531;23;20591;-51
2022/11/15 14:55:31;;;;;;;22.33;11.83;;;12.20;52.20;;;;;;6243464;23;20381;-51
2022/11/15 14:57:58;;;;;;;19.73;11.50;;;12.10;84.00;;;;;;6243622;23;20181;-51
2022/11/15 15:00:23;;;;;;;21.77;11.90;;;12.00;99.90;;;;;;6216646;23;20389;-51
2022/11/15 15:02:52;;;;;;;13.67;10.33;;;12.00;99.90;;;;;;6243430;23;20376;-51
2022/11/15 15:05:24;;;;;;;17.85;12.02;;;11.90;99.90;;;;;;6241568;23;20423;-49
2022/11/15 15:07:51;;;;;;;20.50;11.80;;;11.80;99.90;;;;;;6234675;23;20586;-51
2022/11/15 15:10:17;;;;;;;16.90;11.30;;;11.80;99.90;;;;;;6239269;23;20488;-50
2022/11/15 15:12:43;;;;;;;14.93;10.50;;;11.70;99.90;;;;;;6240411;23;20827;-51
2022/11/15 15:15:24;;;;;;;21.27;12.13;;;11.70;99.90;;;;;;6241631;23;20178;-51
2022/11/15 15:17:50;;;;;;;15.53;11.10;;;11.60;99.90;;;;;;6243134;23;20447;-51
2022/11/15 15:20:16;;;;;;;19.97;11.50;;;11.50;99.90;;;;;;6243232;23;21032;-50
2022/11/15 15:22:41;;;;;;;18.70;12.20;;;11.40;99.90;;;;;;6243637;23;20200;-51
2022/11/15 15:25:20;;;;;;;16.33;10.83;;;11.30;99.90;;;;;;6239175;23;20377;-51
2022/11/15 15:27:45;;;;;;;22.07;12.33;;;11.20;1.00;;;;;;6240112;23;20474;-51
2022/11/15 15:30:11;;;;;;;19.03;10.70;;;11.10;1.00;;;;;;6238331;23;20368;-50
2022/11/15 15:32:37;;;;;;;18.83;11.83;;;11.00;1.00;;;;;;6212473;23;20236;-51
2022/11/15 15:35:02;;;;;;;23.20;12.63;;;11.00;1.00;;;;;;6239378;23;20177;-51
2022/11/15 15:37:30;;;;;;;17.70;12.47;;;10.90;99.90;;;;;;6239294;23;20153;-51
2022/11/15 15:39:56;;;;;;;21.83;11.30;;;10.80;99.90;;;;;;6239195;23;20168;-51
2022/11/15 15:42:23;;;;;;;18.90;12.00;;;10.70;99.90;;;;;;6239259;23;20448;-51
2022/11/15 15:44:51;;;;;;;17.10;11.63;;;10.60;99.90;;;;;;6235368;23;20368;-51
2022/11/15 15:47:20;;;;;;;15.80;11.70;;;10.50;99.90;;;;;;6238766;23;20380;-52
2022/11/15 15:49:47;;;;;;;21.73;12.00;;;10.40;1.00;;;;;;6241839;23;20435;-52
2022/11/15 15:52:13;;;;;;;17.33;11.40;;;10.40;1.00;;;;;;6245781;23;20846;-50
2022/11/15 15:54:39;;;;;;;17.60;12.43;;;10.30;1.00;;;;;;6242754;23;20432;-51
2022/11/15 15:57:06;;;;;;;20.43;12.33;;;10.20;99.90;;;;;;6241398;23;20215;-51
2022/11/15 15:59:31;;;;;;;16.80;12.27;;;10.20;99.90;;;;;;6239409;23;20377;-51
2022/11/15 16:01:57;;;;;;;20.10;12.20;;;10.10;1.00;;;;;;6239125;23;20383;-51
2022/11/15 16:04:23;;;;;;;20.87;12.97;;;10.10;1.00;;;;;;6235389;23;20150;-50
2022/11/15 16:06:52;;;;;;;21.53;12.73;;;10.10;99.90;;;;;;6239162;23;20276;-50
2022/11/15 16:09:59;;;;;;;20.53;13.20;;;10.00;1.00;;;;;;6239039;23;20400;-51
2022/11/15 16:12:05;;;;;;;20.07;12.87;;;10.10;99.90;;;;;;6239802;23;20442;-51
2022/11/15 16:14:31;;;;;;;19.07;12.43;;;10.20;1.00;;;;;;6239086;23;20766;-50
2022/11/15 16:16:56;;;;;;;20.60;12.70;;;10.10;99.90;;;;;;6238357;23;20435;-51
2022/11/15 16:19:22;;;;;;;16.17;11.53;;;10.20;99.90;;;;;;6238918;23;20138;-51
2022/11/15 16:21:47;;;;;;;19.87;12.63;;;10.20;99.90;;;;;;6238644;23;20225;-52
2022/11/15 16:24:13;;;;;;;21.33;13.17;;;10.30;99.90;;;;;;6234418;23;20222;-51
2022/11/15 16:26:39;;;;;;;19.87;12.40;;;10.30;99.90;;;;;;6238456;23;20173;-52
2022/11/15 16:29:06;;;;;;;21.77;12.77;;;10.30;99.90;;;;;;6238451;23;20158;-52
2022/11/15 16:31:32;;;;;;;16.17;11.33;;;10.30;99.90;;;;;;6240073;23;20149;-52
2022/11/15 16:33:58;;;;;;;21.63;13.40;;;10.30;1.00;;;;;;6238097;23;20431;-50
2022/11/15 16:36:25;;;;;;;21.13;12.30;;;10.40;99.90;;;;;;6238590;23;20150;-51
2022/11/15 16:38:52;;;;;;;17.90;11.83;;;10.40;99.90;;;;;;6238689;23;20562;-51
2022/11/15 16:41:18;;;;;;;18.90;12.83;;;10.50;1.00;;;;;;6238229;23;20400;-51
2022/11/15 16:43:48;;;;;;;19.03;12.47;;;10.50;99.90;;;;;;6238655;23;20851;-51
2022/11/15 16:46:42;;;;;;;20.90;13.10;;;10.50;99.90;;;;;;6234457;23;20393;-51
2022/11/15 16:49:14;;;;;;;17.70;11.33;;;10.40;31.60;;;;;;6235669;23;20510;-51
2022/11/15 16:51:40;;;;;;;20.47;11.83;;;10.40;1.00;;;;;;6241963;23;20373;-51
2022/11/15 16:54:06;;;;;;;21.07;12.87;;;10.30;1.00;;;;;;6244096;23;20539;-52
2022/11/15 16:56:32;;;;;;;21.67;12.40;;;10.30;1.00;;;;;;6243844;23;20481;-50
2022/11/15 16:59:00;;;;;;;14.70;11.13;;;10.20;1.00;;;;;;6244735;23;20366;-52
2022/11/15 17:01:29;;;;;;;43.00;25.03;;;10.10;99.90;;;;;;6245095;23;20483;-52
2022/11/15 17:03:55;;;;;;;19.33;13.10;;;10.10;99.90;;;;;;6240421;23;20369;-51
2022/11/15 17:06:22;;;;;;;19.80;13.93;;;10.00;99.90;;;;;;6243663;23;20439;-52
2022/11/15 17:08:48;;;;;;;24.37;14.47;;;10.00;99.90;;;;;;6244295;23;20899;-51
2022/11/15 17:11:20;;;;;;;24.40;13.83;;;10.00;1.00;;;;;;6244789;23;20365;-52
2022/11/15 17:13:46;;;;;;;23.23;13.60;;;10.10;1.00;;;;;;6244257;23;20178;-52
2022/11/15 17:16:14;;;;;;;24.67;13.80;;;10.10;99.90;;;;;;6244581;23;20789;-52
2022/11/15 17:18:40;;;;;;;22.40;14.27;;;10.10;99.90;;;;;;6244752;23;20361;-51
2022/11/15 17:21:11;;;;;;;20.93;13.00;;;10.10;1.00;;;;;;6244374;23;20358;-52
2022/11/15 17:23:37;;;;;;;19.13;12.30;;;10.10;99.90;;;;;;6244428;23;20372;-52
2022/11/15 17:26:04;;;;;;;20.03;11.63;;;10.10;99.90;;;;;;6244152;23;20709;-52
2022/11/15 17:28:34;;;;;;;19.10;13.40;;;10.10;1.00;;;;;;6241997;23;20592;-52
2022/11/15 17:31:00;;;;;;;19.23;13.10;;;10.10;1.00;;;;;;6243843;23;20371;-60
2022/11/15 17:33:26;;;;;;;20.30;13.43;;;10.10;99.90;;;;;;6244219;23;20889;-52
2022/11/15 17:36:00;;;;;;;23.97;13.43;;;10.10;99.90;;;;;;6244566;23;20207;-52
2022/11/15 17:38:26;;;;;;;21.60;13.83;;;10.20;88.90;;;;;;6244638;23;20388;-52
2022/11/15 17:41:14;;;;;;;17.53;12.80;;;10.10;99.90;;;;;;6244351;23;20804;-51
2022/11/15 17:43:40;;;;;;;20.27;13.53;;;10.10;1.00;;;;;;6244347;23;20369;-51
2022/11/15 17:46:09;;;;;;;19.63;13.50;;;10.00;99.90;;;;;;6244493;23;20459;-53
2022/11/15 17:48:35;;;;;;;22.00;13.70;;;10.00;1.00;;;;;;6243558;23;20491;-52
2022/11/15 17:51:06;;;;;;;19.50;13.90;;;10.10;99.90;;;;;;6244431;23;20451;-53
2022/11/15 17:53:36;;;;;;;25.00;12.87;;;10.20;1.00;;;;;;6243452;23;20291;-52
2022/11/15 17:56:07;;;;;;;19.03;13.27;;;10.20;99.90;;;;;;6244447;23;20638;-52
2022/11/15 17:58:33;;;;;;;22.87;13.80;;;10.20;99.90;;;;;;6244421;23;20360;-56
2022/11/15 18:01:20;;;;;;;23.97;14.57;;;10.20;99.90;;;;;;6244097;23;20460;-52
2022/11/15 18:03:46;;;;;;;23.87;14.00;;;10.30;1.00;;;;;;6243581;23;20369;-53
2022/11/15 18:06:13;;;;;;;22.23;13.17;;;10.30;1.00;;;;;;6244053;23;20535;-53
2022/11/15 18:08:41;;;;;;;21.77;13.60;;;10.40;1.00;;;;;;6243868;23;21160;-52
2022/11/15 18:11:08;;;;;;;24.27;12.87;;;10.40;1.00;;;;;;6238867;23;20943;-53
2022/11/15 18:13:38;;;;;;;23.10;14.17;;;10.50;1.00;;;;;;6242956;23;20470;-52
2022/11/15 18:16:06;;;;;;;20.43;12.90;;;10.50;1.00;;;;;;6242920;23;20368;-54
2022/11/15 18:18:33;;;;;;;21.77;13.87;;;10.50;99.90;;;;;;6242758;23;20459;-54
2022/11/15 18:21:06;;;;;;;28.67;15.60;;;10.50;99.90;;;;;;6242787;23;20360;-53
2022/11/15 18:23:33;;;;;;;22.03;12.87;;;10.60;99.90;;;;;;6243111;23;20700;-52
2022/11/15 18:25:59;;;;;;;21.33;13.00;;;10.60;1.00;;;;;;6243618;23;20365;-52
2022/11/15 18:28:51;;;;;;;22.90;14.17;;;10.70;99.90;;;;;;6242959;23;20463;-52
2022/11/15 18:31:25;;;;;;;24.80;16.77;;;10.70;99.90;;;;;;6243513;23;20365;-53
2022/11/15 18:33:52;;;;;;;22.90;14.00;;;10.60;53.40;;;;;;6242819;23;20416;-52
2022/11/15 18:36:20;;;;;;;33.33;14.73;;;10.70;1.00;;;;;;6243375;23;20371;-52
2022/11/15 18:38:45;;;;;;;19.77;12.77;;;10.70;99.90;;;;;;6243031;23;20376;-52
2022/11/15 18:41:24;;;;;;;20.90;13.67;;;10.60;1.00;;;;;;6243506;23;20470;-51
2022/11/15 18:43:51;;;;;;;18.43;12.50;;;10.70;99.90;;;;;;6242789;23;20225;-52
2022/11/15 18:46:21;;;;;;;18.27;12.60;;;10.70;99.90;;;;;;6242931;23;20680;-52
2022/11/15 18:48:51;;;;;;;22.70;13.57;;;10.70;99.90;;;;;;6242557;23;20401;-52
2022/11/15 18:51:20;;;;;;;22.37;13.10;;;10.70;99.90;;;;;;6242830;23;20427;-52
2022/11/15 18:53:47;;;;;;;20.30;13.00;;;10.60;93.90;;;;;;6241425;23;20427;-51
2022/11/15 18:56:15;;;;;;;19.83;13.87;;;10.60;1.00;;;;;;6243340;23;20368;-51
2022/11/15 18:58:42;;;;;;;20.07;13.30;;;10.70;99.90;;;;;;6242877;23;20361;-52
2022/11/15 19:01:13;;;;;;;18.97;12.20;;;10.60;1.00;;;;;;6243272;23;20384;-53
2022/11/15 19:03:41;;;;;;;18.00;13.30;;;10.50;1.00;;;;;;6242580;23;20360;-51
2022/11/15 19:06:09;;;;;;;20.87;12.97;;;10.50;1.00;;;;;;6243182;23;20380;-52
2022/11/15 19:08:37;;;;;;;18.47;12.67;;;10.40;99.90;;;;;;6243481;23;20506;-51
2022/11/15 19:11:12;;;;;;;20.50;13.20;;;10.40;1.00;;;;;;6243394;23;20377;-52
2022/11/15 19:13:38;;;;;;;19.93;13.50;;;10.40;99.90;;;;;;6242803;23;20418;-52
2022/11/15 19:16:05;;;;;;;16.00;11.77;;;10.50;1.00;;;;;;6242797;23;20373;-52
2022/11/15 19:18:32;;;;;;;18.67;12.70;;;10.40;1.00;;;;;;6216093;23;20491;-52
2022/11/15 19:21:02;;;;;;;23.73;13.27;;;10.40;99.90;;;;;;6238812;23;20369;-52
2022/11/15 19:23:31;;;;;;;20.20;12.90;;;10.50;99.90;;;;;;6242996;23;20372;-52
2022/11/15 19:25:59;;;;;;;19.00;12.80;;;10.40;99.90;;;;;;6242134;23;20369;-52
2022/11/15 19:28:26;;;;;;;19.37;13.73;;;10.40;99.90;;;;;;6243018;23;20391;-52
2022/11/15 19:30:52;;;;;;;18.63;13.30;;;10.50;99.90;;;;;;6240141;23;20373;-52
2022/11/15 19:33:20;;;;;;;18.53;13.40;;;10.50;10.40;;;;;;6242426;23;20384;-52
2022/11/15 19:35:46;;;;;;;24.47;13.10;;;10.50;1.00;;;;;;6239457;23;20400;-52
2022/11/15 19:38:11;;;;;;;20.10;13.50;;;10.60;1.00;;;;;;6242512;23;20368;-54
2022/11/15 19:40:37;;;;;;;22.30;14.33;;;10.50;99.90;;;;;;6242525;23;20365;-52
2022/11/15 19:43:03;;;;;;;21.40;13.30;;;10.50;77.10;;;;;;6241131;23;20154;-52
2022/11/15 19:45:28;;;;;;;19.50;13.30;;;10.60;1.00;;;;;;6240387;23;20170;-52
2022/11/15 19:47:54;;;;;;;24.73;12.97;;;10.60;99.90;;;;;;6241246;23;20756;-51
2022/11/15 19:50:19;;;;;;;22.63;13.90;;;10.70;50.60;;;;;;6239696;23;20204;-53
2022/11/15 19:52:45;;;;;;;24.43;12.87;;;10.70;1.00;;;;;;6241593;23;20196;-52
2022/11/15 19:55:11;;;;;;;19.30;13.07;;;10.60;99.90;;;;;;6241794;23;20185;-53
2022/11/15 19:57:36;;;;;;;16.47;12.30;;;10.60;99.90;;;;;;6240630;23;20168;-52
2022/11/15 20:00:04;;;;;;;19.50;13.53;;;10.60;99.90;;;;;;6242504;23;20913;-53
2022/11/15 20:02:30;;;;;;;19.27;13.50;;;10.60;85.20;;;;;;6242988;23;20134;-51
2022/11/15 20:04:56;;;;;;;25.03;13.43;;;10.70;1.00;;;;;;6243227;23;21151;-51
2022/11/15 20:07:21;;;;;;;22.50;13.53;;;10.70;99.90;;;;;;6243551;23;20142;-52
2022/11/15 20:09:47;;;;;;;17.33;11.90;;;10.70;99.90;;;;;;6242484;23;20169;-52
2022/11/15 20:12:12;;;;;;;22.90;15.10;;;10.70;45.00;;;;;;6243413;23;20158;-52
2022/11/15 20:14:38;;;;;;;23.60;13.70;;;10.70;1.00;;;;;;6242817;23;20170;-52
2022/11/15 20:17:04;;;;;;;21.20;14.43;;;10.70;2.80;;;;;;6243660;23;20169;-51
2022/11/15 20:19:29;;;;;;;23.10;13.93;;;10.70;1.00;;;;;;6244849;23;20156;-51
2022/11/15 20:21:55;;;;;;;21.70;14.00;;;10.80;1.00;;;;;;6242355;23;20157;-51
2022/11/15 20:24:20;;;;;;;23.73;14.10;;;10.70;1.00;;;;;;6215372;23;20245;-51
2022/11/15 20:26:46;;;;;;;25.10;14.70;;;10.70;1.00;;;;;;6243904;23;20158;-52
2022/11/15 20:29:12;;;;;;;23.37;13.00;;;10.70;1.00;;;;;;6245162;23;20242;-51
2022/11/15 20:31:37;;;;;;;18.67;12.97;;;10.70;99.90;;;;;;6240837;23;20158;-51
2022/11/15 20:34:03;;;;;;;20.63;14.23;;;10.70;99.90;;;;;;6242483;23;20419;-51
2022/11/15 20:36:29;;;;;;;20.23;13.87;;;10.70;99.90;;;;;;6217649;23;20607;-51
2022/11/15 20:38:58;;;;;;;20.50;12.80;;;10.70;99.90;;;;;;6244463;23;20177;-52
2022/11/15 20:41:25;;;;;;;22.83;15.50;;;10.70;99.90;;;;;;6244777;23;20150;-51